Time;durP1;ratioP1;P1;durP2;ratioP2;P2;SDS_P1;SDS_P2;PMS_P1;PMS_P2;Temp;Humidity;BMP_temperature;BMP_pressure;BME280_temperature;BME280_humidity;BME280_pressure;Samples;Min_cycle;Max_cycle;Signal;HPM_P1;HPM_P2
2023/07/27 04:03:42;;;;;;;0.13;0.13;;;13.70;99.90;;;;;;5149255;27;20407;-70
2023/07/27 04:06:07;;;;;;;0.00;0.00;;;13.50;99.90;;;;;;5125797;28;20047;-69
2023/07/27 04:08:33;;;;;;;0.75;0.45;;;13.50;99.90;;;;;;5129365;27;20753;-69
2023/07/27 04:10:58;;;;;;;0.15;0.15;;;13.50;99.90;;;;;;5130109;27;20077;-70
2023/07/27 04:13:24;;;;;;;0.70;0.38;;;13.60;99.90;;;;;;5123254;28;20043;-69
2023/07/27 04:15:49;;;;;;;0.20;0.10;;;13.50;99.90;;;;;;5130704;27;20066;-68
2023/07/27 04:18:15;;;;;;;0.20;0.20;;;13.50;99.90;;;;;;5110617;28;20494;-69
2023/07/27 04:20:41;;;;;;;0.35;0.22;;;13.60;99.90;;;;;;5141688;27;20043;-69
2023/07/27 04:23:06;;;;;;;0.68;0.68;;;13.50;99.90;;;;;;5110427;28;20079;-69
2023/07/27 04:25:32;;;;;;;0.30;0.20;;;13.50;99.90;;;;;;5113481;27;20043;-68
2023/07/27 04:27:57;;;;;;;0.15;0.15;;;13.60;99.90;;;;;;5137670;27;20066;-68
2023/07/27 04:30:23;;;;;;;1.65;0.30;;;13.60;99.90;;;;;;5134432;27;20035;-68
2023/07/27 04:32:49;;;;;;;1.13;0.47;;;13.60;99.90;;;;;;5110215;28;20118;-68
2023/07/27 04:35:14;;;;;;;0.20;0.20;;;13.50;99.90;;;;;;5110132;28;20357;-68
2023/07/27 04:37:40;;;;;;;0.98;0.30;;;13.60;99.90;;;;;;5122509;27;20035;-68
2023/07/27 04:40:06;;;;;;;0.63;0.17;;;13.60;99.90;;;;;;5131105;27;20064;-68
2023/07/27 04:42:32;;;;;;;0.10;0.10;;;13.60;99.90;;;;;;5125950;27;20088;-69
2023/07/27 04:44:57;;;;;;;0.55;0.38;;;13.70;99.90;;;;;;5145671;27;20038;-69
2023/07/27 04:47:23;;;;;;;0.20;0.20;;;13.70;99.90;;;;;;5131849;27;20042;-69
2023/07/27 04:49:48;;;;;;;0.20;0.20;;;13.70;99.90;;;;;;5145112;27;20038;-69
2023/07/27 04:52:14;;;;;;;0.25;0.25;;;13.60;99.90;;;;;;5129883;27;20042;-69
2023/07/27 04:54:39;;;;;;;1.10;0.28;;;13.70;99.90;;;;;;5118842;27;20058;-68
2023/07/27 04:57:05;;;;;;;1.23;0.77;;;13.80;99.90;;;;;;5147892;27;20388;-69
2023/07/27 04:59:31;;;;;;;0.10;0.10;;;13.70;99.90;;;;;;5134756;27;20035;-68
2023/07/27 05:01:57;;;;;;;0.00;0.00;;;13.90;99.90;;;;;;5113295;27;20035;-68
2023/07/27 05:04:22;;;;;;;2.00;0.50;;;13.90;99.90;;;;;;5104040;27;20556;-68
2023/07/27 05:06:48;;;;;;;0.25;0.25;;;13.90;99.90;;;;;;5099309;28;20122;-69
2023/07/27 05:09:14;;;;;;;0.55;0.30;;;14.00;99.90;;;;;;5105019;27;20445;-69
2023/07/27 05:11:40;;;;;;;1.55;0.60;;;13.90;99.90;;;;;;5135423;27;20035;-68
2023/07/27 05:14:05;;;;;;;0.10;0.10;;;13.90;99.90;;;;;;5106586;27;20034;-68
2023/07/27 05:16:31;;;;;;;0.20;0.20;;;13.90;99.90;;;;;;5099063;27;20046;-68
2023/07/27 05:18:57;;;;;;;0.43;0.43;;;14.00;99.90;;;;;;5139557;27;20175;-68
2023/07/27 05:21:23;;;;;;;0.40;0.20;;;13.90;99.90;;;;;;5107383;27;20043;-69
2023/07/27 05:23:49;;;;;;;0.45;0.45;;;14.00;99.90;;;;;;5100406;27;20054;-69
2023/07/27 05:26:15;;;;;;;0.68;0.68;;;14.00;99.90;;;;;;5105168;27;20079;-69
2023/07/27 05:28:40;;;;;;;0.55;0.20;;;13.90;99.90;;;;;;5101624;27;20043;-69
2023/07/27 05:31:07;;;;;;;0.57;0.57;;;14.00;99.90;;;;;;5087933;27;20039;-68
2023/07/27 05:33:33;;;;;;;0.50;0.40;;;14.00;99.90;;;;;;5133085;27;20425;-69
2023/07/27 05:35:58;;;;;;;0.77;0.20;;;14.00;99.90;;;;;;5110192;27;20077;-69
2023/07/27 05:38:24;;;;;;;0.08;0.08;;;14.10;99.90;;;;;;5106918;28;20036;-69
2023/07/27 05:40:49;;;;;;;0.10;0.10;;;14.10;99.90;;;;;;5102827;27;20038;-69
2023/07/27 05:43:15;;;;;;;0.10;0.10;;;14.10;99.90;;;;;;5118360;27;20112;-69
2023/07/27 05:45:41;;;;;;;0.28;0.28;;;14.10;99.90;;;;;;5120255;27;20086;-68
2023/07/27 05:48:06;;;;;;;0.10;0.10;;;14.20;99.90;;;;;;5116805;27;20125;-68
2023/07/27 05:50:33;;;;;;;0.20;0.20;;;14.20;99.90;;;;;;5101212;27;20044;-68
2023/07/27 05:52:59;;;;;;;0.20;0.20;;;14.30;99.90;;;;;;5102489;27;20110;-68
2023/07/27 05:55:24;;;;;;;0.30;0.30;;;14.30;99.90;;;;;;5121773;27;20118;-69
2023/07/27 05:57:50;;;;;;;0.20;0.20;;;14.20;99.90;;;;;;5096347;27;20451;-68
2023/07/27 06:00:16;;;;;;;0.17;0.17;;;14.30;99.90;;;;;;5109391;27;20031;-69
2023/07/27 06:02:42;;;;;;;0.20;0.20;;;14.20;99.90;;;;;;5122043;27;20096;-68
2023/07/27 06:05:08;;;;;;;0.17;0.17;;;14.30;99.90;;;;;;5114938;27;20047;-68
2023/07/27 06:07:33;;;;;;;0.22;0.22;;;14.20;99.90;;;;;;5110738;27;20043;-68
2023/07/27 06:09:59;;;;;;;0.63;0.60;;;14.30;99.90;;;;;;5093540;28;20039;-68
2023/07/27 06:12:24;;;;;;;1.17;0.47;;;14.30;99.90;;;;;;5104315;27;20047;-69
2023/07/27 06:14:51;;;;;;;0.40;0.10;;;14.40;99.90;;;;;;5113347;27;20031;-69
2023/07/27 06:17:17;;;;;;;0.10;0.10;;;14.40;99.90;;;;;;5122085;27;20135;-69
2023/07/27 06:19:42;;;;;;;0.10;0.10;;;14.30;99.90;;;;;;5109737;27;20108;-69
2023/07/27 06:22:08;;;;;;;0.35;0.35;;;14.50;99.90;;;;;;5111017;28;20400;-68
2023/07/27 06:24:34;;;;;;;0.52;0.52;;;14.40;99.90;;;;;;5094382;27;20130;-69
2023/07/27 06:26:59;;;;;;;0.47;0.22;;;14.50;99.90;;;;;;5120273;27;20141;-68
2023/07/27 06:29:25;;;;;;;0.10;0.10;;;14.60;99.90;;;;;;5105937;28;20067;-68
2023/07/27 06:31:50;;;;;;;0.10;0.10;;;14.60;99.90;;;;;;5143066;27;20039;-68
2023/07/27 06:34:16;;;;;;;0.32;0.32;;;14.60;99.90;;;;;;5114953;27;20450;-68
2023/07/27 06:36:42;;;;;;;0.20;0.20;;;14.60;99.90;;;;;;5094588;28;20100;-68
2023/07/27 06:39:08;;;;;;;0.73;0.73;;;14.60;99.90;;;;;;5119046;27;20031;-68
2023/07/27 06:41:34;;;;;;;0.20;0.20;;;14.70;99.90;;;;;;5121095;27;20046;-68
2023/07/27 06:44:00;;;;;;;1.45;0.55;;;14.70;99.90;;;;;;5113289;27;20038;-67
2023/07/27 06:46:26;;;;;;;0.22;0.17;;;14.60;99.90;;;;;;5111802;27;20043;-68
2023/07/27 06:48:52;;;;;;;0.43;0.43;;;14.70;99.90;;;;;;5112779;27;20515;-68
2023/07/27 06:51:18;;;;;;;0.30;0.30;;;14.70;99.90;;;;;;5125846;27;20043;-68
2023/07/27 06:53:44;;;;;;;0.15;0.15;;;14.80;99.90;;;;;;5113815;27;20039;-68
2023/07/27 06:56:09;;;;;;;0.28;0.28;;;14.70;99.90;;;;;;5115944;27;20042;-68
2023/07/27 06:58:35;;;;;;;0.55;0.30;;;14.70;99.90;;;;;;5123161;27;20050;-68
2023/07/27 07:01:00;;;;;;;1.20;0.30;;;14.90;99.90;;;;;;5122724;27;20494;-68
2023/07/27 07:03:26;;;;;;;0.10;0.10;;;14.80;99.90;;;;;;5115503;27;20070;-69
2023/07/27 07:05:55;;;;;;;0.10;0.10;;;14.80;99.90;;;;;;5114675;27;20502;-69
2023/07/27 07:08:20;;;;;;;0.52;0.30;;;14.90;99.90;;;;;;5113255;27;20070;-69
2023/07/27 07:10:46;;;;;;;0.98;0.43;;;15.00;99.90;;;;;;5110599;27;20391;-69
2023/07/27 07:13:12;;;;;;;0.28;0.28;;;15.00;99.90;;;;;;5121760;27;20035;-68
2023/07/27 07:15:38;;;;;;;0.35;0.35;;;15.00;99.90;;;;;;5111874;27;20562;-69
2023/07/27 07:18:03;;;;;;;0.20;0.20;;;15.00;99.90;;;;;;5111626;27;20070;-69
2023/07/27 07:20:29;;;;;;;0.10;0.10;;;15.00;99.90;;;;;;5112044;27;20247;-69
2023/07/27 07:22:55;;;;;;;0.25;0.25;;;14.90;99.90;;;;;;5111781;27;20043;-70
2023/07/27 07:25:20;;;;;;;0.30;0.10;;;15.00;99.90;;;;;;5123983;27;20117;-70
2023/07/27 07:27:46;;;;;;;0.10;0.10;;;14.90;99.90;;;;;;5113479;27;20050;-70
2023/07/27 07:30:12;;;;;;;0.00;0.00;;;15.00;99.90;;;;;;5093857;27;20530;-72
2023/07/27 07:32:37;;;;;;;0.20;0.20;;;14.90;99.90;;;;;;5107688;27;20150;-72
2023/07/27 07:35:03;;;;;;;0.22;0.22;;;15.00;99.90;;;;;;5117373;27;20391;-72
2023/07/27 07:37:29;;;;;;;0.40;0.40;;;15.00;99.90;;;;;;5090663;28;20035;-72
2023/07/27 07:39:55;;;;;;;0.10;0.10;;;15.00;99.90;;;;;;5093596;27;20038;-73
2023/07/27 07:42:21;;;;;;;0.03;0.03;;;14.90;99.90;;;;;;5113530;28;20039;-72
2023/07/27 07:44:46;;;;;;;0.32;0.32;;;14.90;99.90;;;;;;5111617;28;20043;-72
2023/07/27 07:47:12;;;;;;;0.40;0.40;;;14.90;99.90;;;;;;5110208;27;20031;-73
2023/07/27 07:49:38;;;;;;;0.10;0.10;;;15.00;99.90;;;;;;5098019;28;20062;-72
2023/07/27 07:52:04;;;;;;;0.40;0.20;;;15.00;99.90;;;;;;5128201;28;20035;-73
2023/07/27 07:54:29;;;;;;;0.30;0.30;;;15.00;99.90;;;;;;5113279;28;20035;-73
2023/07/27 07:56:55;;;;;;;0.20;0.20;;;15.00;99.90;;;;;;5113703;28;20054;-73
2023/07/27 07:59:22;;;;;;;0.50;0.50;;;14.90;99.90;;;;;;5119652;28;20114;-72
2023/07/27 08:01:47;;;;;;;0.10;0.10;;;15.00;99.90;;;;;;5124563;28;20373;-72
2023/07/27 08:04:13;;;;;;;0.20;0.20;;;15.00;99.90;;;;;;5130149;28;20042;-72
2023/07/27 08:06:38;;;;;;;0.25;0.25;;;15.00;99.90;;;;;;5110217;28;20519;-72
2023/07/27 08:09:06;;;;;;;0.57;0.10;;;15.00;99.90;;;;;;5111485;28;20050;-73
2023/07/27 08:11:32;;;;;;;0.20;0.20;;;15.00;99.90;;;;;;5150350;27;20065;-71
2023/07/27 08:14:02;;;;;;;0.20;0.20;;;15.00;99.90;;;;;;5131097;28;20043;-71
2023/07/27 08:16:31;;;;;;;0.10;0.10;;;15.00;99.90;;;;;;5115218;28;20036;-71
2023/07/27 08:18:57;;;;;;;0.00;0.00;;;15.10;99.90;;;;;;5104385;28;20042;-72
2023/07/27 08:21:23;;;;;;;0.32;0.25;;;15.20;99.90;;;;;;5120579;28;20476;-72
2023/07/27 08:23:48;;;;;;;0.00;0.00;;;15.30;99.90;;;;;;5112508;28;20035;-72
2023/07/27 08:26:14;;;;;;;0.10;0.10;;;15.40;99.90;;;;;;5112065;28;20039;-73
2023/07/27 08:28:41;;;;;;;0.30;0.30;;;15.30;99.90;;;;;;5119546;28;20447;-72
2023/07/27 08:31:07;;;;;;;0.08;0.08;;;15.40;99.90;;;;;;5112759;28;20109;-72
2023/07/27 08:33:32;;;;;;;0.10;0.10;;;15.40;99.90;;;;;;5113348;28;20450;-73
2023/07/27 08:36:00;;;;;;;0.20;0.20;;;15.50;99.90;;;;;;5100580;28;20122;-73
2023/07/27 08:38:26;;;;;;;0.00;0.00;;;15.50;99.90;;;;;;5092906;28;20050;-73
2023/07/27 08:40:59;;;;;;;0.22;0.00;;;15.60;99.90;;;;;;5146588;27;20039;-72
2023/07/27 08:43:26;;;;;;;0.10;0.10;;;15.70;99.90;;;;;;5114614;27;20131;-72
2023/07/27 08:45:52;;;;;;;0.10;0.10;;;15.50;99.90;;;;;;5087417;28;20239;-72
2023/07/27 08:48:18;;;;;;;0.10;0.10;;;15.60;99.90;;;;;;5112783;28;20085;-71
2023/07/27 08:50:45;;;;;;;0.10;0.10;;;15.60;99.90;;;;;;5105588;27;20496;-71
2023/07/27 08:53:11;;;;;;;0.10;0.10;;;15.70;99.90;;;;;;5115428;27;20043;-70
2023/07/27 08:55:40;;;;;;;0.10;0.10;;;15.90;99.90;;;;;;5111264;27;20039;-70
2023/07/27 08:58:10;;;;;;;0.03;0.03;;;15.90;99.90;;;;;;5126745;27;20031;-70
2023/07/27 09:00:38;;;;;;;0.30;0.10;;;16.10;99.90;;;;;;5132542;27;20115;-71
2023/07/27 09:03:04;;;;;;;0.30;0.30;;;16.10;99.90;;;;;;5111755;27;20381;-70
2023/07/27 09:05:44;;;;;;;0.98;0.20;;;16.40;99.90;;;;;;5117744;27;20046;-70
2023/07/27 09:08:14;;;;;;;0.10;0.10;;;16.20;99.90;;;;;;5113677;27;20431;-70
2023/07/27 09:10:42;;;;;;;0.00;0.00;;;16.50;99.90;;;;;;5105440;27;20047;-70
2023/07/27 09:13:08;;;;;;;0.10;0.10;;;16.50;99.90;;;;;;5116437;27;20043;-69
2023/07/27 09:15:36;;;;;;;0.10;0.10;;;16.30;99.90;;;;;;5113970;27;20393;-69
2023/07/27 09:18:08;;;;;;;0.10;0.10;;;16.40;99.90;;;;;;5115577;27;20113;-69
2023/07/27 09:20:34;;;;;;;0.20;0.20;;;16.40;99.90;;;;;;5113106;27;20374;-69
2023/07/27 09:23:00;;;;;;;0.22;0.22;;;16.50;99.90;;;;;;5118068;27;20173;-69
2023/07/27 09:25:26;;;;;;;0.30;0.30;;;16.50;99.90;;;;;;5111893;27;20039;-69
2023/07/27 09:27:53;;;;;;;0.10;0.10;;;16.60;99.90;;;;;;5118571;27;20027;-69
2023/07/27 09:30:19;;;;;;;0.10;0.10;;;16.50;99.90;;;;;;5113224;27;20385;-69
2023/07/27 09:32:47;;;;;;;0.10;0.10;;;16.50;99.90;;;;;;5114843;27;20054;-69
2023/07/27 09:35:15;;;;;;;0.30;0.30;;;16.50;99.90;;;;;;5124046;27;20473;-69
2023/07/27 09:37:45;;;;;;;0.17;0.17;;;16.60;99.90;;;;;;5096327;28;20040;-69
2023/07/27 09:40:14;;;;;;;0.10;0.10;;;16.70;99.90;;;;;;5133121;27;20077;-69
2023/07/27 09:42:44;;;;;;;0.05;0.05;;;16.70;99.90;;;;;;5115323;27;20051;-70
2023/07/27 09:45:11;;;;;;;0.00;0.00;;;16.90;99.90;;;;;;5108240;28;20061;-69
2023/07/27 09:47:37;;;;;;;0.93;0.30;;;17.10;99.90;;;;;;5108895;27;20095;-69
2023/07/27 09:50:03;;;;;;;0.10;0.10;;;17.00;99.90;;;;;;5114244;27;20027;-68
2023/07/27 09:52:29;;;;;;;0.40;0.40;;;17.10;99.90;;;;;;5114851;27;20064;-69
2023/07/27 09:54:57;;;;;;;0.00;0.00;;;17.20;99.90;;;;;;5092916;28;20042;-69
2023/07/27 09:57:23;;;;;;;0.68;0.68;;;17.20;99.90;;;;;;5112441;27;20087;-68
2023/07/27 09:59:49;;;;;;;0.10;0.10;;;17.40;99.90;;;;;;5094551;28;20370;-69
2023/07/27 10:02:15;;;;;;;0.17;0.17;;;17.30;99.90;;;;;;5118900;27;20290;-68
2023/07/27 10:04:46;;;;;;;0.50;0.50;;;17.20;99.90;;;;;;5104241;28;20040;-69
2023/07/27 10:07:12;;;;;;;0.47;0.43;;;17.30;99.90;;;;;;5094414;28;20075;-67
2023/07/27 10:09:38;;;;;;;1.02;0.38;;;17.50;99.90;;;;;;5094539;27;20108;-68
2023/07/27 10:12:04;;;;;;;0.38;0.38;;;17.30;99.90;;;;;;5115481;27;20039;-69
2023/07/27 10:14:31;;;;;;;0.50;0.17;;;17.20;99.90;;;;;;5114938;27;20481;-68
2023/07/27 10:17:08;;;;;;;0.10;0.10;;;17.20;99.90;;;;;;5122459;27;20035;-68
2023/07/27 10:19:45;;;;;;;0.40;0.38;;;17.20;99.90;;;;;;5115631;27;20465;-68
2023/07/27 10:22:16;;;;;;;0.35;0.15;;;17.30;99.90;;;;;;5116305;27;20039;-68
2023/07/27 10:24:58;;;;;;;0.20;0.20;;;17.50;99.90;;;;;;5105078;28;20058;-68
2023/07/27 10:27:24;;;;;;;0.20;0.20;;;17.30;99.90;;;;;;5107618;27;20039;-67
2023/07/27 10:30:08;;;;;;;0.20;0.20;;;17.30;99.90;;;;;;5127546;27;20050;-67
2023/07/27 10:32:36;;;;;;;0.10;0.10;;;17.30;99.90;;;;;;5099620;27;20035;-68
2023/07/27 10:35:06;;;;;;;1.02;0.43;;;17.50;99.90;;;;;;5120586;27;20039;-68
2023/07/27 10:37:54;;;;;;;0.10;0.10;;;17.30;99.90;;;;;;5131992;27;20039;-68
2023/07/27 10:40:24;;;;;;;0.10;0.10;;;17.20;99.90;;;;;;5120086;27;20050;-67
2023/07/27 10:42:59;;;;;;;0.13;0.13;;;17.40;99.90;;;;;;5114110;27;20394;-68
2023/07/27 10:45:26;;;;;;;0.03;0.03;;;17.40;99.90;;;;;;5115144;27;20035;-67
2023/07/27 10:47:56;;;;;;;0.75;0.22;;;17.40;99.90;;;;;;5131963;27;20050;-67
2023/07/27 10:50:21;;;;;;;0.35;0.35;;;17.30;99.90;;;;;;5125292;27;20039;-68
2023/07/27 10:52:52;;;;;;;0.20;0.20;;;17.40;99.90;;;;;;5114569;27;20039;-67
2023/07/27 10:55:19;;;;;;;0.47;0.17;;;17.60;99.90;;;;;;5108209;27;20046;-67
2023/07/27 10:57:46;;;;;;;0.43;0.43;;;17.70;99.90;;;;;;5116879;27;20083;-67
2023/07/27 11:00:13;;;;;;;0.10;0.10;;;17.70;99.90;;;;;;5112244;27;20066;-68
2023/07/27 11:02:41;;;;;;;0.10;0.10;;;17.80;99.90;;;;;;5093461;27;20168;-68
2023/07/27 11:05:08;;;;;;;0.20;0.20;;;17.90;99.90;;;;;;5107240;27;20057;-68
2023/07/27 11:07:42;;;;;;;0.15;0.13;;;18.10;99.90;;;;;;5117130;27;20061;-68
2023/07/27 11:10:10;;;;;;;0.43;0.20;;;18.20;99.90;;;;;;5111761;27;20116;-68
2023/07/27 11:12:49;;;;;;;0.85;0.75;;;18.20;99.90;;;;;;5114463;27;20398;-68
2023/07/27 11:15:27;;;;;;;0.20;0.20;;;18.30;99.90;;;;;;5102748;27;20039;-68
2023/07/27 11:17:55;;;;;;;0.20;0.20;;;18.50;99.90;;;;;;5111980;27;20477;-68
2023/07/27 11:20:26;;;;;;;0.00;0.00;;;18.50;99.90;;;;;;5092567;28;20102;-68
2023/07/27 11:22:53;;;;;;;0.32;0.22;;;18.70;99.90;;;;;;5093283;28;20439;-68
2023/07/27 11:25:19;;;;;;;0.10;0.10;;;18.60;99.90;;;;;;5109618;27;20080;-67
2023/07/27 11:27:52;;;;;;;0.30;0.30;;;18.70;99.90;;;;;;5126278;27;20489;-68
2023/07/27 11:30:21;;;;;;;0.00;0.00;;;18.90;99.90;;;;;;5107503;27;20381;-67
2023/07/27 11:33:04;;;;;;;0.20;0.17;;;18.70;99.90;;;;;;5113824;27;20381;-68
2023/07/27 11:35:30;;;;;;;0.30;0.30;;;18.80;99.90;;;;;;5114184;27;20031;-67
2023/07/27 11:37:56;;;;;;;0.10;0.10;;;18.70;99.90;;;;;;5116397;27;20054;-67
2023/07/27 11:40:23;;;;;;;0.10;0.10;;;18.70;99.90;;;;;;5102660;27;20038;-67
2023/07/27 11:42:48;;;;;;;0.17;0.17;;;18.80;99.90;;;;;;5118216;27;20134;-68
2023/07/27 11:45:14;;;;;;;0.15;0.05;;;18.70;99.90;;;;;;5122296;27;20126;-68
2023/07/27 11:47:40;;;;;;;0.20;0.20;;;18.70;99.90;;;;;;5096731;28;20047;-68
2023/07/27 11:50:08;;;;;;;0.20;0.20;;;18.60;99.90;;;;;;5113113;28;20030;-69
2023/07/27 11:52:36;;;;;;;0.20;0.20;;;18.50;99.90;;;;;;5102830;28;20044;-68
2023/07/27 11:55:02;;;;;;;0.52;0.30;;;18.50;99.90;;;;;;5128023;27;20044;-69
2023/07/27 11:57:29;;;;;;;0.08;0.08;;;18.50;99.90;;;;;;5120577;28;20035;-71
2023/07/27 12:00:03;;;;;;;0.03;0.03;;;18.40;99.90;;;;;;5111132;28;20377;-71
2023/07/27 12:02:32;;;;;;;0.45;0.28;;;18.50;99.90;;;;;;5095043;28;20069;-71
2023/07/27 12:05:00;;;;;;;0.00;0.00;;;18.30;99.90;;;;;;5093102;28;20050;-71
2023/07/27 12:07:31;;;;;;;0.10;0.10;;;18.40;99.90;;;;;;5099814;28;20035;-71
2023/07/27 12:09:56;;;;;;;0.30;0.30;;;18.20;99.90;;;;;;5110333;28;20140;-71
2023/07/27 12:12:22;;;;;;;0.30;0.30;;;18.20;99.90;;;;;;5091847;28;20085;-70
2023/07/27 12:14:48;;;;;;;0.30;0.30;;;18.00;99.90;;;;;;5097488;27;20413;-70
2023/07/27 12:17:14;;;;;;;0.30;0.30;;;18.10;99.90;;;;;;5151357;27;20035;-70
2023/07/27 12:19:39;;;;;;;0.70;0.40;;;18.00;99.90;;;;;;5114833;27;20553;-69
2023/07/27 12:22:05;;;;;;;1.25;0.90;;;18.30;99.90;;;;;;5096297;27;20035;-70
2023/07/27 12:24:30;;;;;;;1.88;0.30;;;18.10;99.90;;;;;;5122573;27;20031;-70
2023/07/27 12:26:58;;;;;;;0.10;0.10;;;18.20;99.90;;;;;;5101700;28;20362;-72
2023/07/27 12:29:24;;;;;;;0.35;0.35;;;18.20;99.90;;;;;;5129311;27;20044;-71
2023/07/27 12:31:50;;;;;;;0.10;0.10;;;18.50;99.90;;;;;;5096415;28;20038;-72
2023/07/27 12:34:15;;;;;;;0.13;0.13;;;18.60;99.90;;;;;;5123524;27;20031;-71
2023/07/27 12:36:41;;;;;;;0.40;0.13;;;18.60;99.90;;;;;;5123548;27;20038;-70
2023/07/27 12:39:06;;;;;;;0.30;0.30;;;18.70;99.90;;;;;;5109803;27;20118;-70
2023/07/27 12:41:32;;;;;;;0.20;0.13;;;18.60;99.90;;;;;;5087903;27;20051;-70
2023/07/27 12:43:57;;;;;;;0.10;0.10;;;18.50;99.90;;;;;;5107870;27;20083;-70
2023/07/27 12:46:23;;;;;;;2.40;0.10;;;18.60;99.90;;;;;;5112282;27;20031;-70
2023/07/27 12:48:50;;;;;;;0.15;0.15;;;18.90;99.90;;;;;;5112350;27;20034;-70
2023/07/27 12:51:15;;;;;;;0.05;0.05;;;19.00;99.90;;;;;;5109619;27;20043;-70
2023/07/27 12:53:41;;;;;;;0.22;0.22;;;18.90;99.90;;;;;;5098618;27;20043;-71
2023/07/27 12:56:06;;;;;;;0.10;0.10;;;19.00;99.90;;;;;;5105863;27;20076;-70
2023/07/27 12:58:32;;;;;;;0.10;0.10;;;19.00;99.90;;;;;;5106351;27;20410;-70
2023/07/27 13:00:57;;;;;;;0.10;0.10;;;18.80;99.90;;;;;;5108844;27;20042;-70
2023/07/27 13:03:23;;;;;;;0.73;0.30;;;18.60;99.90;;;;;;5111503;27;20048;-69
2023/07/27 13:05:49;;;;;;;1.35;1.25;;;18.70;99.90;;;;;;5106141;28;20043;-70
2023/07/27 13:08:14;;;;;;;0.30;0.30;;;18.70;99.90;;;;;;5130538;27;20440;-71
2023/07/27 13:10:40;;;;;;;0.10;0.10;;;18.50;99.90;;;;;;5108651;27;20039;-73
2023/07/27 13:13:05;;;;;;;0.00;0.00;;;18.50;99.90;;;;;;5106947;27;20035;-69
2023/07/27 13:15:31;;;;;;;0.20;0.17;;;18.40;99.90;;;;;;5109771;27;20036;-69
2023/07/27 13:18:02;;;;;;;0.05;0.05;;;18.40;99.90;;;;;;5106772;27;20031;-71
2023/07/27 13:20:31;;;;;;;0.00;0.00;;;18.40;99.90;;;;;;5110574;27;20122;-71
2023/07/27 13:22:58;;;;;;;0.00;0.00;;;18.50;99.90;;;;;;5103263;27;20040;-71
2023/07/27 13:25:24;;;;;;;0.10;0.10;;;18.50;99.90;;;;;;5110752;27;20035;-71
2023/07/27 13:27:50;;;;;;;0.10;0.10;;;18.30;99.90;;;;;;5098491;27;20158;-71
2023/07/27 13:30:15;;;;;;;0.20;0.20;;;18.40;99.90;;;;;;5112408;27;20412;-71
2023/07/27 13:32:41;;;;;;;0.00;0.00;;;18.30;99.90;;;;;;5115680;27;20043;-70
2023/07/27 13:35:07;;;;;;;0.00;0.00;;;18.20;99.90;;;;;;5109114;28;20035;-71
2023/07/27 13:37:33;;;;;;;0.00;0.00;;;18.20;99.90;;;;;;5118996;27;20152;-70
2023/07/27 13:39:58;;;;;;;0.05;0.05;;;18.40;99.90;;;;;;5093379;27;20127;-71
2023/07/27 13:42:25;;;;;;;0.00;0.00;;;18.30;99.90;;;;;;5111023;27;20043;-73
2023/07/27 13:44:51;;;;;;;0.10;0.10;;;18.40;99.90;;;;;;5100633;27;20032;-73
2023/07/27 13:47:17;;;;;;;0.80;0.57;;;18.40;99.90;;;;;;5144408;27;20035;-73
2023/07/27 13:49:42;;;;;;;0.10;0.10;;;18.40;99.90;;;;;;5097721;27;20047;-71
2023/07/27 13:52:08;;;;;;;0.17;0.17;;;18.50;99.90;;;;;;5109581;27;20046;-71
2023/07/27 13:54:33;;;;;;;0.10;0.10;;;18.50;99.90;;;;;;5111722;27;20385;-71
2023/07/27 13:56:59;;;;;;;0.00;0.00;;;18.40;99.90;;;;;;5114337;27;20031;-70
2023/07/27 13:59:24;;;;;;;0.10;0.10;;;18.40;99.90;;;;;;5106190;27;20032;-71
2023/07/27 14:01:50;;;;;;;0.40;0.20;;;18.50;99.90;;;;;;5137105;27;20496;-74
2023/07/27 14:04:16;;;;;;;0.20;0.20;;;18.50;99.90;;;;;;5108427;27;20034;-71
2023/07/27 14:06:42;;;;;;;0.85;0.20;;;18.40;99.90;;;;;;5103093;27;20050;-71
2023/07/27 14:09:07;;;;;;;0.00;0.00;;;18.40;99.90;;;;;;5109907;27;20039;-70
2023/07/27 14:11:34;;;;;;;0.00;0.00;;;18.40;99.90;;;;;;5099125;28;20059;-71
2023/07/27 14:14:00;;;;;;;0.00;0.00;;;18.50;99.90;;;;;;5129548;27;20547;-71
2023/07/27 14:16:26;;;;;;;0.17;0.17;;;18.50;99.90;;;;;;5120917;27;20484;-70
2023/07/27 14:18:52;;;;;;;0.20;0.20;;;18.50;99.90;;;;;;5112335;27;20665;-70
2023/07/27 14:21:17;;;;;;;0.00;0.00;;;18.60;99.90;;;;;;5101534;27;20044;-70
2023/07/27 14:23:43;;;;;;;0.88;0.20;;;18.50;99.90;;;;;;5106788;27;20035;-69
2023/07/27 14:26:08;;;;;;;0.10;0.10;;;18.80;99.90;;;;;;5103797;27;20113;-70
2023/07/27 14:28:34;;;;;;;0.10;0.10;;;18.60;99.90;;;;;;5099514;27;20381;-69
2023/07/27 14:30:59;;;;;;;0.10;0.10;;;18.60;99.90;;;;;;5101492;27;20035;-70
2023/07/27 14:33:25;;;;;;;0.10;0.10;;;18.70;99.90;;;;;;5101018;27;20169;-70
2023/07/27 14:35:51;;;;;;;0.10;0.10;;;18.70;99.90;;;;;;5133218;27;20039;-70
2023/07/27 14:38:16;;;;;;;0.40;0.40;;;18.60;99.90;;;;;;5104768;27;20031;-71
2023/07/27 14:40:42;;;;;;;0.40;0.40;;;18.50;99.90;;;;;;5101291;28;20061;-70
2023/07/27 14:43:07;;;;;;;0.20;0.20;;;18.60;99.90;;;;;;5106131;27;20035;-71
2023/07/27 14:45:37;;;;;;;0.20;0.20;;;18.50;99.90;;;;;;5113621;27;20473;-69
2023/07/27 14:48:03;;;;;;;0.65;0.45;;;18.60;99.90;;;;;;5106904;27;20047;-70
2023/07/27 14:50:28;;;;;;;0.35;0.10;;;18.40;99.90;;;;;;5093392;27;20492;-69
2023/07/27 14:52:54;;;;;;;1.13;1.05;;;18.40;99.90;;;;;;5122065;27;20043;-69
2023/07/27 14:55:20;;;;;;;0.20;0.17;;;18.40;99.90;;;;;;5103838;27;20324;-70
2023/07/27 14:57:46;;;;;;;0.30;0.20;;;18.40;99.90;;;;;;5111824;27;20081;-69
2023/07/27 15:00:12;;;;;;;0.20;0.20;;;18.50;99.90;;;;;;5112669;27;20038;-70
2023/07/27 15:02:38;;;;;;;0.80;0.68;;;18.30;99.90;;;;;;5112536;27;20473;-73
2023/07/27 15:05:04;;;;;;;0.30;0.30;;;18.50;99.90;;;;;;5111581;27;20074;-70
2023/07/27 15:07:29;;;;;;;0.93;0.65;;;18.30;99.90;;;;;;5114625;27;20039;-68
2023/07/27 15:09:55;;;;;;;0.38;0.38;;;18.30;99.90;;;;;;5115299;27;20044;-69
2023/07/27 15:12:20;;;;;;;0.13;0.10;;;18.40;99.90;;;;;;5111676;27;20070;-69
2023/07/27 15:14:46;;;;;;;0.28;0.20;;;18.60;99.90;;;;;;5112370;27;20035;-69
2023/07/27 15:17:11;;;;;;;6.60;1.85;;;18.50;99.90;;;;;;5113494;27;20035;-69
2023/07/27 15:19:37;;;;;;;0.10;0.10;;;18.60;99.90;;;;;;5092848;28;20072;-70
2023/07/27 15:22:04;;;;;;;0.38;0.22;;;18.60;99.90;;;;;;5114200;27;20493;-69
2023/07/27 15:24:29;;;;;;;0.30;0.30;;;18.60;99.90;;;;;;5111187;27;20054;-71
2023/07/27 15:26:55;;;;;;;1.70;0.50;;;18.60;99.90;;;;;;5112882;27;20043;-70
2023/07/27 15:29:21;;;;;;;0.20;0.20;;;18.80;99.90;;;;;;5106397;27;20143;-68
2023/07/27 15:31:46;;;;;;;0.28;0.28;;;18.80;99.90;;;;;;5141436;27;20056;-70
2023/07/27 15:34:12;;;;;;;0.40;0.20;;;19.00;99.90;;;;;;5099841;27;20043;-71
2023/07/27 15:36:38;;;;;;;0.20;0.20;;;19.00;99.90;;;;;;5109795;27;20168;-70
2023/07/27 15:39:04;;;;;;;0.50;0.50;;;19.10;99.90;;;;;;5084666;27;20529;-70
2023/07/27 15:41:29;;;;;;;0.75;0.75;;;19.00;99.90;;;;;;5112164;27;20118;-68
2023/07/27 15:43:55;;;;;;;0.80;0.10;;;18.90;99.90;;;;;;5112960;28;20068;-70
2023/07/27 15:46:20;;;;;;;0.20;0.20;;;18.80;99.90;;;;;;5104979;27;20042;-68
2023/07/27 15:48:46;;;;;;;0.20;0.20;;;18.80;99.90;;;;;;5114352;27;20039;-70
2023/07/27 15:51:12;;;;;;;0.73;0.73;;;18.80;99.90;;;;;;5091351;28;20164;-70
2023/07/27 15:53:38;;;;;;;0.65;0.65;;;19.00;99.90;;;;;;5111754;28;20040;-71
2023/07/27 15:56:07;;;;;;;0.52;0.52;;;18.80;99.90;;;;;;5113013;28;20039;-70
2023/07/27 15:58:32;;;;;;;0.95;0.55;;;18.70;99.90;;;;;;5114111;28;20035;-71
2023/07/27 16:00:58;;;;;;;0.15;0.15;;;18.70;99.90;;;;;;5116067;28;20495;-72
2023/07/27 16:03:24;;;;;;;0.30;0.30;;;18.70;99.90;;;;;;5099603;28;20080;-67
2023/07/27 16:05:50;;;;;;;0.20;0.20;;;18.80;99.90;;;;;;5113440;28;20477;-72
2023/07/27 16:08:15;;;;;;;0.10;0.10;;;18.60;99.90;;;;;;5123851;28;20039;-69
2023/07/27 16:10:45;;;;;;;0.20;0.15;;;18.80;99.90;;;;;;5103967;28;20483;-71
2023/07/27 16:13:11;;;;;;;0.00;0.00;;;18.80;99.90;;;;;;5111990;28;20031;-70
2023/07/27 16:15:40;;;;;;;0.30;0.30;;;18.80;99.90;;;;;;5118004;28;20578;-72
2023/07/27 16:18:07;;;;;;;0.17;0.17;;;18.80;99.90;;;;;;5111213;28;20043;-71
2023/07/27 16:20:33;;;;;;;0.10;0.10;;;18.80;99.90;;;;;;5100785;28;20410;-71
2023/07/27 16:22:58;;;;;;;0.10;0.10;;;19.00;99.90;;;;;;5096328;28;20308;-71
2023/07/27 16:25:24;;;;;;;0.20;0.20;;;18.90;99.90;;;;;;5105883;28;20130;-69
2023/07/27 16:27:51;;;;;;;0.20;0.20;;;19.00;99.90;;;;;;5113525;28;20085;-70
2023/07/27 16:30:18;;;;;;;0.10;0.10;;;18.90;99.90;;;;;;5110653;28;20042;-69
2023/07/27 16:32:44;;;;;;;0.28;0.20;;;18.90;99.90;;;;;;5106043;28;20039;-70
2023/07/27 16:35:09;;;;;;;0.40;0.20;;;18.80;99.90;;;;;;5100027;28;20040;-71
2023/07/27 16:37:35;;;;;;;0.13;0.13;;;18.80;99.90;;;;;;5131588;27;20397;-70
2023/07/27 16:40:00;;;;;;;0.40;0.40;;;18.90;99.90;;;;;;5098696;28;20035;-70
2023/07/27 16:42:26;;;;;;;0.95;0.38;;;18.80;99.90;;;;;;5098371;28;20039;-70
2023/07/27 16:44:52;;;;;;;0.20;0.20;;;18.90;99.90;;;;;;5101240;28;20569;-70
2023/07/27 16:47:17;;;;;;;0.20;0.10;;;18.90;99.90;;;;;;5104708;28;20043;-71